Time;durP1;ratioP1;P1;durP2;ratioP2;P2;SDS_P1;SDS_P2;PMS_P1;PMS_P2;Temp;Humidity;BMP_temperature;BMP_pressure;BME280_temperature;BME280_humidity;BME280_pressure;Samples;Min_cycle;Max_cycle;Signal;HPM_P1;HPM_P2
2022/10/18 00:00:42;;;;;;;;;;;9.20;99.90;;;;;;5047905;28;19920;-83
2022/10/18 00:03:07;;;;;;;;;;;9.10;99.90;;;;;;5061743;28;19924;-82
2022/10/18 00:05:33;;;;;;;;;;;9.10;99.90;;;;;;5048260;28;20445;-83
2022/10/18 00:07:58;;;;;;;;;;;9.20;99.90;;;;;;5048651;28;19928;-83
2022/10/18 00:10:24;;;;;;;;;;;9.10;99.90;;;;;;5045077;28;19913;-82
2022/10/18 00:12:50;;;;;;;;;;;9.10;99.90;;;;;;5033989;28;20054;-82
2022/10/18 00:15:15;;;;;;;;;;;8.90;99.90;;;;;;5033866;28;19988;-82
2022/10/18 00:17:41;;;;;;;;;;;8.80;99.90;;;;;;5046549;28;20279;-83
2022/10/18 00:20:07;;;;;;;;;;;8.70;99.90;;;;;;5047473;28;20335;-82
2022/10/18 00:22:33;;;;;;;;;;;8.70;99.90;;;;;;5047585;28;20352;-82
2022/10/18 00:24:59;;;;;;;;;;;8.60;99.90;;;;;;5042460;28;20007;-82
2022/10/18 00:27:24;;;;;;;;;;;8.50;99.90;;;;;;5047067;28;20007;-82
2022/10/18 00:29:53;;;;;;;;;;;8.50;99.90;;;;;;5062489;28;20249;-82
2022/10/18 00:32:18;;;;;;;;;;;8.30;99.90;;;;;;5048310;28;19928;-83
2022/10/18 00:34:44;;;;;;;;;;;8.30;99.90;;;;;;5064157;28;19916;-82
2022/10/18 00:37:09;;;;;;;;;;;8.30;99.90;;;;;;5065977;28;20374;-81
2022/10/18 00:39:35;;;;;;;;;;;8.30;99.90;;;;;;5045558;28;19929;-83
2022/10/18 00:42:02;;;;;;;;;;;8.30;99.90;;;;;;5048806;28;19917;-82
2022/10/18 00:44:27;;;;;;;;;;;8.30;99.90;;;;;;5047963;28;20283;-82
2022/10/18 00:46:58;;;;;;;;;;;8.20;99.90;;;;;;5046047;28;19924;-82
2022/10/18 00:49:29;;;;;;;;;;;8.20;99.90;;;;;;5044652;28;19924;-82
2022/10/18 00:52:02;;;;;;;;;;;8.20;99.90;;;;;;5048623;28;20234;-82
2022/10/18 00:54:29;;;;;;;;;;;8.20;99.90;;;;;;5045270;28;19917;-83
2022/10/18 00:56:55;;;;;;;;;;;8.10;99.90;;;;;;5032603;28;19913;-83
2022/10/18 00:59:21;;;;;;;;;;;8.10;99.90;;;;;;5046185;28;19924;-83
2022/10/18 01:01:46;;;;;;;;;;;8.10;99.90;;;;;;5035016;28;19924;-83
2022/10/18 01:04:15;;;;;;;;;;;8.10;99.90;;;;;;5048584;28;19926;-82
2022/10/18 01:06:49;;;;;;;;;;;8.20;99.90;;;;;;5053286;28;19916;-82
2022/10/18 01:09:33;;;;;;;;;;;8.20;99.90;;;;;;5046377;28;19924;-81
2022/10/18 01:11:58;;;;;;;;;;;8.20;99.90;;;;;;5065964;28;20023;-81
2022/10/18 01:14:40;;;;;;;;;;;8.20;99.90;;;;;;5048969;28;20004;-82
2022/10/18 01:17:28;;;;;;;;;;;8.10;99.90;;;;;;5045745;28;20052;-82
2022/10/18 01:19:54;;;;;;;;;;;8.10;99.90;;;;;;5039883;28;19920;-82
2022/10/18 01:22:22;;;;;;;;;;;8.10;99.90;;;;;;5061232;28;19991;-81
2022/10/18 01:24:47;;;;;;;;;;;8.00;99.90;;;;;;5042875;28;20017;-81
2022/10/18 01:27:28;;;;;;;;;;;8.00;99.90;;;;;;5042575;28;19982;-82
2022/10/18 01:30:12;;;;;;;;;;;8.00;99.90;;;;;;5056243;28;20402;-82
2022/10/18 01:32:39;;;;;;;;;;;7.90;99.90;;;;;;5043016;28;19925;-82
2022/10/18 01:35:12;;;;;;;;;;;8.00;99.90;;;;;;5031165;28;20441;-81
2022/10/18 01:37:39;;;;;;;;;;;8.10;99.90;;;;;;5047473;28;20015;-81
2022/10/18 01:40:06;;;;;;;;;;;8.10;99.90;;;;;;5045000;28;20394;-81
2022/10/18 01:42:32;;;;;;;;;;;8.10;99.90;;;;;;5043877;28;19936;-80
2022/10/18 01:44:59;;;;;;;;;;;8.10;99.90;;;;;;5049932;28;19916;-82
2022/10/18 01:47:25;;;;;;;;;;;8.00;99.90;;;;;;5045291;28;19920;-81
2022/10/18 01:49:58;;;;;;;;;;;8.00;99.90;;;;;;5044488;28;19917;-80
2022/10/18 01:52:24;;;;;;;;;;;7.90;99.90;;;;;;5044341;28;19928;-81
2022/10/18 01:54:50;;;;;;;;;;;7.90;99.90;;;;;;5045999;28;20362;-82
2022/10/18 01:57:21;;;;;;;;;;;7.90;99.90;;;;;;5044003;28;20348;-82
2022/10/18 01:59:52;;;;;;;;;;;7.90;99.90;;;;;;5044660;28;19980;-81
2022/10/18 02:02:21;;;;;;;;;;;7.90;99.90;;;;;;5038843;28;20389;-81
2022/10/18 02:05:01;;;;;;;;;;;7.90;99.90;;;;;;5027009;28;19960;-81
2022/10/18 02:07:41;;;;;;;;;;;7.90;99.90;;;;;;5033320;28;20503;-81
2022/10/18 02:10:11;;;;;;;;;;;7.90;99.90;;;;;;5063893;28;19916;-81
2022/10/18 02:12:38;;;;;;;;;;;7.90;99.90;;;;;;5044018;28;19968;-81
2022/10/18 02:15:05;;;;;;;;;;;7.90;99.90;;;;;;5039603;28;20102;-81
2022/10/18 02:17:30;;;;;;;;;;;7.80;99.90;;;;;;5041069;28;20415;-81
2022/10/18 02:19:56;;;;;;;;;;;7.80;99.90;;;;;;5042460;28;19959;-81
2022/10/18 02:22:28;;;;;;;;;;;7.70;99.90;;;;;;5044880;28;20073;-81
2022/10/18 02:24:56;;;;;;;;;;;7.60;99.90;;;;;;5043092;28;20407;-81
2022/10/18 02:27:21;;;;;;;;;;;7.60;99.90;;;;;;5057557;28;20223;-81
2022/10/18 02:29:47;;;;;;;;;;;7.50;99.90;;;;;;5058379;28;20221;-81
2022/10/18 02:32:51;;;;;;;;;;;7.40;99.90;;;;;;5043473;28;20003;-81
2022/10/18 02:35:49;;;;;;;;;;;7.40;99.90;;;;;;4995859;28;19918;-81
2022/10/18 02:38:16;;;;;;;;;;;7.30;99.90;;;;;;4946609;28;19957;-80
2022/10/18 02:40:41;;;;;;;;;;;7.30;99.90;;;;;;5041090;28;20403;-80
2022/10/18 02:43:07;;;;;;;;;;;7.20;99.90;;;;;;5062880;28;19978;-80
2022/10/18 02:45:32;;;;;;;;;;;7.20;99.90;;;;;;5049439;28;19916;-80
2022/10/18 02:47:58;;;;;;;;;;;7.20;99.90;;;;;;5050407;28;20340;-80
2022/10/18 02:50:23;;;;;;;;;;;7.20;99.90;;;;;;5057208;28;19946;-81
2022/10/18 02:52:49;;;;;;;;;;;7.10;99.90;;;;;;5043276;28;19991;-79
2022/10/18 02:55:15;;;;;;;;;;;7.10;99.90;;;;;;5042515;28;20012;-80
2022/10/18 02:57:40;;;;;;;;;;;7.00;99.90;;;;;;5042003;28;19925;-80
2022/10/18 03:00:06;;;;;;;;;;;6.90;99.90;;;;;;5034980;28;20027;-80
2022/10/18 03:02:31;;;;;;;;;;;6.90;99.90;;;;;;5025233;28;19924;-79
2022/10/18 03:04:57;;;;;;;;;;;6.90;99.90;;;;;;5040401;28;19916;-80
2022/10/18 03:07:22;;;;;;;;;;;6.90;99.90;;;;;;5058101;28;19924;-80
2022/10/18 03:09:48;;;;;;;;;;;7.00;99.90;;;;;;5051683;28;19917;-80
2022/10/18 03:12:13;;;;;;;;;;;7.00;99.90;;;;;;5041720;28;20296;-80
2022/10/18 03:14:39;;;;;;;;;;;7.00;99.90;;;;;;5043244;28;19916;-80
2022/10/18 03:17:04;;;;;;;;;;;7.00;99.90;;;;;;5057307;28;19917;-79
2022/10/18 03:19:30;;;;;;;;;;;7.00;99.90;;;;;;5041336;28;19940;-79
2022/10/18 03:21:56;;;;;;;;;;;7.00;99.90;;;;;;5042871;28;20318;-80
2022/10/18 03:24:21;;;;;;;;;;;7.00;99.90;;;;;;5043840;28;19952;-79
2022/10/18 03:26:46;;;;;;;;;;;7.00;99.90;;;;;;5035998;28;20364;-79
2022/10/18 03:29:12;;;;;;;;;;;7.10;99.90;;;;;;5021310;28;19924;-80
2022/10/18 03:31:38;;;;;;;;;;;7.10;99.90;;;;;;5031796;28;19944;-80
2022/10/18 03:34:03;;;;;;;;;;;7.10;99.90;;;;;;5044553;28;19917;-80
2022/10/18 03:36:29;;;;;;;;;;;7.10;99.90;;;;;;5054336;28;20288;-79
2022/10/18 03:38:54;;;;;;;;;;;7.20;99.90;;;;;;5040498;28;19956;-79
2022/10/18 03:41:20;;;;;;;;;;;7.30;99.90;;;;;;5041600;28;19928;-79
2022/10/18 03:43:45;;;;;;;;;;;7.20;99.90;;;;;;5041134;28;19913;-79
2022/10/18 03:46:11;;;;;;;;;;;7.20;99.90;;;;;;5042860;28;19913;-79
2022/10/18 03:48:37;;;;;;;;;;;7.10;99.90;;;;;;5040631;28;19913;-79
2022/10/18 03:51:02;;;;;;;;;;;7.00;99.90;;;;;;5034276;28;19917;-79
2022/10/18 03:53:28;;;;;;;;;;;6.90;99.90;;;;;;5043168;28;19960;-79
2022/10/18 03:55:54;;;;;;;;;;;6.80;99.90;;;;;;5041600;28;20326;-79
2022/10/18 03:58:20;;;;;;;;;;;6.80;99.90;;;;;;5041373;28;19923;-79
2022/10/18 04:00:48;;;;;;;;;;;6.80;99.90;;;;;;5040584;28;19921;-79
2022/10/18 04:03:13;;;;;;;;;;;6.70;99.90;;;;;;5035051;28;19917;-78
2022/10/18 04:05:39;;;;;;;;;;;6.70;99.90;;;;;;5048779;28;20026;-79
2022/10/18 04:08:04;;;;;;;;;;;6.70;99.90;;;;;;5038613;28;19954;-79
2022/10/18 04:10:30;;;;;;;;;;;6.60;99.90;;;;;;5058034;28;19928;-78
2022/10/18 04:12:55;;;;;;;;;;;6.60;99.90;;;;;;5039987;28;19964;-78
2022/10/18 04:15:21;;;;;;;;;;;6.60;99.90;;;;;;5036375;28;19941;-79
2022/10/18 04:17:46;;;;;;;;;;;6.70;99.90;;;;;;5044188;28;20342;-79
2022/10/18 04:20:12;;;;;;;;;;;6.80;99.90;;;;;;5041577;28;19917;-79
2022/10/18 04:22:37;;;;;;;;;;;6.90;99.90;;;;;;5056438;28;19974;-79
2022/10/18 04:25:03;;;;;;;;;;;7.00;99.90;;;;;;5027421;28;20112;-78
2022/10/18 04:27:28;;;;;;;;;;;7.00;99.90;;;;;;5025507;28;20379;-78
2022/10/18 04:29:54;;;;;;;;;;;7.10;99.90;;;;;;5040757;28;19923;-78
2022/10/18 04:32:19;;;;;;;;;;;7.10;99.90;;;;;;5047296;28;19924;-78
2022/10/18 04:34:45;;;;;;;;;;;7.10;99.90;;;;;;5045768;28;19913;-78
2022/10/18 04:37:10;;;;;;;;;;;7.10;99.90;;;;;;5039974;28;20498;-78
2022/10/18 04:39:36;;;;;;;;;;;7.10;99.90;;;;;;5038374;28;19925;-78
2022/10/18 04:42:01;;;;;;;;;;;7.10;99.90;;;;;;5043344;28;19917;-78
2022/10/18 04:44:27;;;;;;;;;;;7.10;99.90;;;;;;5044197;28;19925;-78
2022/10/18 04:46:52;;;;;;;;;;;7.10;99.90;;;;;;5044523;28;19965;-77
2022/10/18 04:49:18;;;;;;;;;;;7.00;99.90;;;;;;5043843;28;20327;-77
2022/10/18 04:51:43;;;;;;;;;;;7.00;99.90;;;;;;5038744;28;20399;-78
2022/10/18 04:54:09;;;;;;;;;;;6.90;99.90;;;;;;5051500;28;20194;-77
2022/10/18 04:56:34;;;;;;;;;;;6.90;99.90;;;;;;5046046;28;19917;-78
2022/10/18 04:59:00;;;;;;;;;;;6.80;99.90;;;;;;5044591;28;19916;-78
2022/10/18 05:01:25;;;;;;;;;;;6.80;99.90;;;;;;5043648;28;19917;-77
2022/10/18 05:03:54;;;;;;;;;;;6.80;99.90;;;;;;5042519;28;19917;-78
2022/10/18 05:06:21;;;;;;;;;;;6.80;99.90;;;;;;5042948;28;19912;-77
2022/10/18 05:08:46;;;;;;;;;;;6.80;99.90;;;;;;5030917;28;19945;-78
2022/10/18 05:11:12;;;;;;;;;;;6.70;99.90;;;;;;5044339;28;19916;-78
2022/10/18 05:13:37;;;;;;;;;;;6.70;99.90;;;;;;5041978;28;19916;-77
2022/10/18 05:16:03;;;;;;;;;;;6.70;99.90;;;;;;5037592;28;19971;-78
2022/10/18 05:18:29;;;;;;;;;;;6.70;99.90;;;;;;5056990;28;20022;-78
2022/10/18 05:20:54;;;;;;;;;;;6.80;99.90;;;;;;5054514;28;19964;-78
2022/10/18 05:23:20;;;;;;;;;;;6.70;99.90;;;;;;5042551;28;20288;-78
2022/10/18 05:25:46;;;;;;;;;;;6.70;99.90;;;;;;5043963;28;19924;-78
2022/10/18 05:28:11;;;;;;;;;;;6.60;99.90;;;;;;5043964;28;19917;-77
2022/10/18 05:30:38;;;;;;;;;;;6.60;99.90;;;;;;5042007;28;19916;-78
2022/10/18 05:33:03;;;;;;;;;;;6.40;99.90;;;;;;5042771;28;19955;-78
2022/10/18 05:35:29;;;;;;;;;;;6.30;99.90;;;;;;5044573;28;20003;-78
2022/10/18 05:37:54;;;;;;;;;;;6.10;99.90;;;;;;5043358;28;20020;-78
2022/10/18 05:40:20;;;;;;;;;;;6.00;99.90;;;;;;5038573;28;20275;-78
2022/10/18 05:42:45;;;;;;;;;;;5.90;99.90;;;;;;5030110;28;19916;-77
2022/10/18 05:45:11;;;;;;;;;;;5.90;99.90;;;;;;5062718;28;20420;-76
2022/10/18 05:47:36;;;;;;;;;;;5.90;99.90;;;;;;5051651;28;20423;-78
2022/10/18 05:50:02;;;;;;;;;;;6.00;99.90;;;;;;5046273;28;20783;-78
2022/10/18 05:52:28;;;;;;;;;;;6.10;99.90;;;;;;5043193;28;20047;-78
2022/10/18 05:54:53;;;;;;;;;;;6.10;99.90;;;;;;5043964;28;19917;-78
2022/10/18 05:57:19;;;;;;;;;;;6.20;99.90;;;;;;5043148;28;19959;-78
2022/10/18 05:59:44;;;;;;;;;;;6.20;99.90;;;;;;5044918;28;19939;-78
2022/10/18 06:02:10;;;;;;;;;;;6.20;99.90;;;;;;5047696;28;19917;-78
2022/10/18 06:04:36;;;;;;;;;;;6.30;99.90;;;;;;5039228;28;19917;-78
2022/10/18 06:07:02;;;;;;;;;;;6.30;99.90;;;;;;5033802;28;20430;-78
2022/10/18 06:09:29;;;;;;;;;;;6.40;99.90;;;;;;5044086;28;19916;-78
2022/10/18 06:11:56;;;;;;;;;;;6.40;99.90;;;;;;5042327;28;20008;-78
2022/10/18 06:14:21;;;;;;;;;;;6.40;99.90;;;;;;5043361;28;20426;-78
2022/10/18 06:16:47;;;;;;;;;;;6.40;99.90;;;;;;5059735;28;20105;-77
2022/10/18 06:19:12;;;;;;;;;;;6.40;99.90;;;;;;5041862;28;20389;-78
2022/10/18 06:21:38;;;;;;;;;;;6.40;99.90;;;;;;5044159;28;20007;-78
2022/10/18 06:24:03;;;;;;;;;;;6.40;99.90;;;;;;5044380;28;19912;-78
2022/10/18 06:26:29;;;;;;;;;;;6.40;99.90;;;;;;5043966;28;19975;-78
2022/10/18 06:28:54;;;;;;;;;;;6.40;99.90;;;;;;5040319;28;20408;-79
2022/10/18 06:31:20;;;;;;;;;;;6.30;99.90;;;;;;5038428;28;20238;-79
2022/10/18 06:33:45;;;;;;;;;;;6.30;99.90;;;;;;5044430;28;19932;-79
2022/10/18 06:36:15;;;;;;;;;;;6.40;99.90;;;;;;5043011;28;19917;-79
2022/10/18 06:38:41;;;;;;;;;;;6.30;99.90;;;;;;5040666;28;20006;-79
2022/10/18 06:41:07;;;;;;;;;;;6.30;99.90;;;;;;5039419;28;19917;-79
2022/10/18 06:43:33;;;;;;;;;;;6.30;99.90;;;;;;5039452;28;19932;-80
2022/10/18 06:45:59;;;;;;;;;;;6.20;99.90;;;;;;5044988;28;20170;-79
2022/10/18 06:48:25;;;;;;;;;;;6.20;99.90;;;;;;5042841;28;19962;-79
2022/10/18 06:50:55;;;;;;;;;;;6.20;99.90;;;;;;5045189;28;19917;-80
2022/10/18 06:53:21;;;;;;;;;;;6.20;99.90;;;;;;5041591;28;19925;-80
2022/10/18 06:55:47;;;;;;;;;;;6.20;99.90;;;;;;5037357;28;19921;-80
2022/10/18 06:58:13;;;;;;;;;;;6.20;99.90;;;;;;5038922;28;20423;-79
2022/10/18 07:00:38;;;;;;;;;;;6.30;99.90;;;;;;5051700;28;19923;-81
2022/10/18 07:03:04;;;;;;;;;;;6.30;99.90;;;;;;5042009;28;19916;-80
2022/10/18 07:05:30;;;;;;;;;;;6.20;99.90;;;;;;5042251;28;19921;-81
2022/10/18 07:07:55;;;;;;;;;;;6.20;99.90;;;;;;5056088;28;19925;-81
2022/10/18 07:10:21;;;;;;;;;;;6.20;99.90;;;;;;5043322;28;19917;-81
2022/10/18 07:12:46;;;;;;;;;;;6.20;99.90;;;;;;5043590;28;19929;-81
2022/10/18 07:15:12;;;;;;;;;;;6.30;99.90;;;;;;5042466;28;19920;-81
2022/10/18 07:17:38;;;;;;;;;;;6.40;99.90;;;;;;5037074;28;20019;-80
2022/10/18 07:20:03;;;;;;;;;;;6.50;99.90;;;;;;5039167;28;20387;-81
2022/10/18 07:22:29;;;;;;;;;;;6.70;99.90;;;;;;5042337;28;19923;-80
2022/10/18 07:24:54;;;;;;;;;;;6.80;99.90;;;;;;5043055;28;19912;-81
2022/10/18 07:27:20;;;;;;;;;;;6.90;99.90;;;;;;5039314;28;20027;-81
2022/10/18 07:29:45;;;;;;;;;;;7.00;99.90;;;;;;5040777;28;19928;-81
2022/10/18 07:32:11;;;;;;;;;;;7.00;99.90;;;;;;5041902;28;19925;-81
2022/10/18 07:34:36;;;;;;;;;;;7.10;99.90;;;;;;5039083;28;19992;-81
2022/10/18 07:37:02;;;;;;;;;;;7.10;99.90;;;;;;5035142;28;19927;-80
2022/10/18 07:39:27;;;;;;;;;;;7.20;99.90;;;;;;5030747;28;20514;-81
2022/10/18 07:41:53;;;;;;;;;;;7.30;99.90;;;;;;5026542;28;20207;-81
2022/10/18 07:44:18;;;;;;;;;;;7.40;99.90;;;;;;5032947;28;19921;-80
2022/10/18 07:46:44;;;;;;;;;;;7.50;99.90;;;;;;5034228;28;20444;-81
2022/10/18 07:49:09;;;;;;;;;;;7.60;99.90;;;;;;5031497;28;19948;-81
2022/10/18 07:51:35;;;;;;;;;;;7.70;99.90;;;;;;5038994;28;19933;-80
2022/10/18 07:54:01;;;;;;;;;;;7.80;99.90;;;;;;5046660;28;20465;-81
2022/10/18 07:56:26;;;;;;;;;;;8.20;99.90;;;;;;5056645;28;19971;-81
2022/10/18 07:58:53;;;;;;;;;;;8.80;99.90;;;;;;5037964;28;19968;-80
2022/10/18 08:01:19;;;;;;;;;;;10.50;99.90;;;;;;5044035;28;19917;-80
2022/10/18 08:03:45;;;;;;;;;;;13.40;99.90;;;;;;5043732;28;19963;-80
2022/10/18 08:06:11;;;;;;;;;;;15.90;99.90;;;;;;5056445;28;19964;-81
2022/10/18 08:08:38;;;;;;;;;;;17.90;94.60;;;;;;5037423;28;19917;-80
2022/10/18 08:11:04;;;;;;;;;;;19.60;82.70;;;;;;5028506;28;19975;-80
2022/10/18 08:13:30;;;;;;;;;;;21.10;75.00;;;;;;5029159;28;19925;-80
2022/10/18 08:16:03;;;;;;;;;;;21.80;69.20;;;;;;5044861;28;19928;-80
2022/10/18 08:18:29;;;;;;;;;;;22.20;66.40;;;;;;5033146;28;19920;-81
2022/10/18 08:20:55;;;;;;;;;;;23.00;63.00;;;;;;5032544;28;19920;-82
2022/10/18 08:23:20;;;;;;;;;;;24.10;61.60;;;;;;5039450;28;19993;-81
2022/10/18 08:25:46;;;;;;;;;;;24.70;59.20;;;;;;5042563;28;19921;-81
2022/10/18 08:28:12;;;;;;;;;;;24.70;58.30;;;;;;5038992;28;20260;-80
2022/10/18 08:30:38;;;;;;;;;;;25.40;57.00;;;;;;5037467;28;19920;-82
2022/10/18 08:33:03;;;;;;;;;;;25.50;55.20;;;;;;5056097;28;20082;-82
2022/10/18 08:35:30;;;;;;;;;;;25.40;55.50;;;;;;5043747;28;19917;-81
2022/10/18 08:37:56;;;;;;;;;;;25.50;56.60;;;;;;5039464;28;19970;-82
2022/10/18 08:40:21;;;;;;;;;;;25.20;54.90;;;;;;5040942;28;19924;-81
2022/10/18 08:42:59;;;;;;;;;;;25.40;56.70;;;;;;5046679;28;19999;-82
2022/10/18 08:45:25;;;;;;;;;;;25.50;55.70;;;;;;5060310;28;19917;-81
2022/10/18 08:47:52;;;;;;;;;;;25.40;55.50;;;;;;5040096;28;19944;-79
2022/10/18 08:50:18;;;;;;;;;;;25.50;56.30;;;;;;5044726;28;19961;-82
2022/10/18 08:52:52;;;;;;;;;;;25.40;56.20;;;;;;5044225;28;20344;-82
2022/10/18 08:55:44;;;;;;;;;;;25.70;56.60;;;;;;5049122;28;20392;-82
2022/10/18 08:58:18;;;;;;;;;;;25.70;56.00;;;;;;5037446;28;20526;-81
2022/10/18 09:00:53;;;;;;;;;;;25.60;55.90;;;;;;5042571;28;20387;-84
2022/10/18 09:03:21;;;;;;;;;;;25.50;57.30;;;;;;5045119;28;19935;-81
2022/10/18 09:05:49;;;;;;;;;;;26.00;56.50;;;;;;5043953;28;19921;-82
2022/10/18 09:08:14;;;;;;;;;;;26.40;57.10;;;;;;5057667;28;19982;-82
2022/10/18 09:10:40;;;;;;;;;;;26.60;56.10;;;;;;5046723;28;19913;-83
2022/10/18 09:13:14;;;;;;;;;;;26.50;56.80;;;;;;5056097;28;20199;-82
2022/10/18 09:16:00;;;;;;;;;;;26.10;57.80;;;;;;5047002;28;19978;-83
2022/10/18 09:18:44;;;;;;;;;;;26.50;57.10;;;;;;5034147;28;19920;-83
2022/10/18 09:21:17;;;;;;;;;;;26.60;57.50;;;;;;5043484;28;19917;-82
2022/10/18 09:23:47;;;;;;;;;;;26.70;56.80;;;;;;5036775;28;19929;-84
2022/10/18 09:26:24;;;;;;;;;;;26.70;56.50;;;;;;5041457;28;20048;-84
2022/10/18 09:28:56;;;;;;;;;;;26.80;56.20;;;;;;5039391;28;19921;-84
2022/10/18 09:31:36;;;;;;;;;;;26.50;58.40;;;;;;5047421;28;19940;-86
2022/10/18 09:34:10;;;;;;;;;;;26.90;57.90;;;;;;5039871;28;20035;-85
2022/10/18 09:36:37;;;;;;;;;;;26.60;57.10;;;;;;5042671;28;19917;-84
2022/10/18 09:39:13;;;;;;;;;;;27.10;56.00;;;;;;5046858;28;19920;-85
2022/10/18 09:42:05;;;;;;;;;;;27.00;56.80;;;;;;5048168;28;19956;-84
2022/10/18 09:44:36;;;;;;;;;;;27.20;56.90;;;;;;5031657;28;20249;-84
2022/10/18 09:47:04;;;;;;;;;;;27.30;58.60;;;;;;5042340;28;19934;-87
2022/10/18 09:49:36;;;;;;;;;;;27.20;56.80;;;;;;5041990;28;19995;-82
2022/10/18 09:52:05;;;;;;;;;;;27.40;56.60;;;;;;5055542;28;20008;-81
2022/10/18 09:54:33;;;;;;;;;;;27.50;56.30;;;;;;5041901;28;19917;-81
2022/10/18 09:57:04;;;;;;;;;;;27.20;56.60;;;;;;5038816;28;19917;-82
2022/10/18 09:59:33;;;;;;;;;;;27.50;55.50;;;;;;5043834;28;19921;-81
2022/10/18 10:01:58;;;;;;;;;;;28.00;58.00;;;;;;5043041;28;19916;-81
2022/10/18 10:04:24;;;;;;;;;;;27.50;58.00;;;;;;5043737;28;20360;-81
2022/10/18 10:06:50;;;;;;;;;;;27.60;57.00;;;;;;5044498;28;20257;-81
2022/10/18 10:09:16;;;;;;;;;;;27.80;57.10;;;;;;5039507;28;20394;-81
2022/10/18 10:11:46;;;;;;;;;;;27.30;58.20;;;;;;5042524;28;19916;-80
2022/10/18 10:14:22;;;;;;;;;;;27.80;55.60;;;;;;5041865;28;20395;-80
2022/10/18 10:16:56;;;;;;;;;;;27.40;57.80;;;;;;5036918;28;19962;-80
2022/10/18 10:19:41;;;;;;;;;;;27.70;58.80;;;;;;5042474;28;20171;-80
2022/10/18 10:22:12;;;;;;;;;;;28.10;58.90;;;;;;5041509;28;19974;-80
2022/10/18 10:24:51;;;;;;;;;;;28.30;57.10;;;;;;5038893;28;19963;-78
2022/10/18 10:27:19;;;;;;;;;;;28.00;57.20;;;;;;5043538;28;19936;-78
2022/10/18 10:29:44;;;;;;;;;;;28.00;57.40;;;;;;5040594;28;19917;-76
2022/10/18 10:32:11;;;;;;;;;;;27.80;57.00;;;;;;5029055;28;19925;-79
2022/10/18 10:34:37;;;;;;;;;;;27.90;57.60;;;;;;5036288;28;19917;-78
2022/10/18 10:37:20;;;;;;;;;;;28.10;56.00;;;;;;5038928;28;20735;-79
2022/10/18 10:40:02;;;;;;;;;;;28.30;57.30;;;;;;5044564;28;19924;-81
2022/10/18 10:42:28;;;;;;;;;;;28.10;56.70;;;;;;5044431;28;20401;-80
2022/10/18 10:44:54;;;;;;;;;;;27.40;56.90;;;;;;5043051;28;19963;-79
2022/10/18 10:47:31;;;;;;;;;;;27.50;56.30;;;;;;5044729;28;19917;-81
2022/10/18 10:49:57;;;;;;;;;;;27.50;57.00;;;;;;5045305;28;19917;-81
2022/10/18 10:52:26;;;;;;;;;;;27.70;57.00;;;;;;5039206;28;19961;-80
2022/10/18 10:54:52;;;;;;;;;;;27.80;57.10;;;;;;5042810;28;19917;-81
2022/10/18 10:57:22;;;;;;;;;;;27.90;56.30;;;;;;5043660;28;19913;-79
2022/10/18 10:59:48;;;;;;;;;;;27.70;56.70;;;;;;5041647;28;19920;-79
2022/10/18 11:02:22;;;;;;;;;;;27.80;53.90;;;;;;5041911;28;19932;-79
2022/10/18 11:04:52;;;;;;;;;;;27.50;54.90;;;;;;5053547;28;19966;-78
2022/10/18 11:07:17;;;;;;;;;;;27.70;55.10;;;;;;5039905;28;20412;-79
2022/10/18 11:09:43;;;;;;;;;;;27.10;55.90;;;;;;5037952;28;19917;-78
2022/10/18 11:12:29;;;;;;;;;;;27.00;59.30;;;;;;5040381;28;19920;-79
2022/10/18 11:15:12;;;;;;;;;;;26.40;60.70;;;;;;5034284;28;19925;-78
2022/10/18 11:17:38;;;;;;;;;;;25.50;61.30;;;;;;5034586;28;19923;-78
2022/10/18 11:20:08;;;;;;;;;;;24.50;63.20;;;;;;5044327;28;19917;-81
2022/10/18 11:22:37;;;;;;;;;;;23.90;64.40;;;;;;5036645;28;19924;-81
2022/10/18 11:25:04;;;;;;;;;;;23.40;69.20;;;;;;5047066;28;19917;-80
2022/10/18 11:27:59;;;;;;;;;;;23.10;70.60;;;;;;5034379;28;19927;-80
2022/10/18 11:30:36;;;;;;;;;;;22.90;67.10;;;;;;4996062;28;19961;-79
2022/10/18 11:33:01;;;;;;;;;;;22.70;68.30;;;;;;5052644;28;19932;-79
2022/10/18 11:35:47;;;;;;;;;;;22.60;75.80;;;;;;5038292;28;20271;-79
2022/10/18 11:38:19;;;;;;;;;;;22.70;72.90;;;;;;5038308;28;19920;-78
2022/10/18 11:41:11;;;;;;;;;;;22.50;68.60;;;;;;5037003;28;20395;-80
2022/10/18 11:43:41;;;;;;;;;;;22.50;68.50;;;;;;5046711;28;19914;-80
2022/10/18 11:46:12;;;;;;;;;;;22.50;69.20;;;;;;5049609;28;19940;-79
2022/10/18 11:48:50;;;;;;;;;;;22.30;68.50;;;;;;5035470;28;19994;-80
2022/10/18 11:51:33;;;;;;;;;;;22.20;66.80;;;;;;5039324;28;19952;-79
2022/10/18 11:54:05;;;;;;;;;;;22.30;66.40;;;;;;5040582;28;20039;-80
2022/10/18 11:56:41;;;;;;;;;;;22.20;70.30;;;;;;5054059;28;19967;-79
2022/10/18 11:59:22;;;;;;;;;;;22.30;64.30;;;;;;5038937;28;19923;-80
2022/10/18 12:01:47;;;;;;;;;;;22.10;64.30;;;;;;5036625;28;20287;-79
2022/10/18 12:04:16;;;;;;;;;;;21.90;63.70;;;;;;5031142;28;19931;-80
2022/10/18 12:06:44;;;;;;;;;;;21.90;65.00;;;;;;5029913;28;20043;-80
2022/10/18 12:09:16;;;;;;;;;;;22.00;67.20;;;;;;5037070;28;19917;-80
2022/10/18 12:11:47;;;;;;;;;;;22.00;68.00;;;;;;5039689;28;19917;-83
2022/10/18 12:14:23;;;;;;;;;;;21.90;73.10;;;;;;5029345;28;19964;-81
2022/10/18 12:16:48;;;;;;;;;;;21.80;66.90;;;;;;5041687;28;19927;-79
2022/10/18 12:19:19;;;;;;;;;;;21.90;72.50;;;;;;5036232;28;19917;-78
2022/10/18 12:21:45;;;;;;;;;;;21.80;73.50;;;;;;5038407;28;19923;-79
2022/10/18 12:24:14;;;;;;;;;;;21.70;71.50;;;;;;5029969;28;20039;-78
2022/10/18 12:26:40;;;;;;;;;;;21.70;75.90;;;;;;5046344;28;19956;-79
2022/10/18 12:29:18;;;;;;;;;;;21.70;70.30;;;;;;5046474;28;19952;-79
2022/10/18 12:31:46;;;;;;;;;;;21.80;72.10;;;;;;5038552;28;20054;-79
2022/10/18 12:34:21;;;;;;;;;;;21.80;68.40;;;;;;5051164;28;19917;-78
2022/10/18 12:36:52;;;;;;;;;;;21.70;71.40;;;;;;5043568;28;20560;-80
2022/10/18 12:39:21;;;;;;;;;;;21.60;68.90;;;;;;5036233;28;19983;-78
2022/10/18 12:41:47;;;;;;;;;;;21.60;74.00;;;;;;5038173;28;20002;-80
2022/10/18 12:44:33;;;;;;;;;;;21.50;74.40;;;;;;5043072;28;19978;-79
2022/10/18 12:47:03;;;;;;;;;;;21.60;72.40;;;;;;5045241;28;20019;-79
2022/10/18 12:49:31;;;;;;;;;;;21.60;72.00;;;;;;5035968;28;20004;-79
2022/10/18 12:52:04;;;;;;;;;;;21.60;72.30;;;;;;5038020;28;19998;-80
2022/10/18 12:54:31;;;;;;;;;;;21.60;74.20;;;;;;5038664;28;19924;-79
2022/10/18 12:56:58;;;;;;;;;;;21.50;74.30;;;;;;5034227;28;19932;-78
2022/10/18 12:59:27;;;;;;;;;;;21.40;79.50;;;;;;5039335;28;19946;-78
2022/10/18 13:01:52;;;;;;;;;;;21.40;75.60;;;;;;5038689;28;20928;-80
2022/10/18 13:04:27;;;;;;;;;;;21.40;74.20;;;;;;5032572;28;19920;-79
2022/10/18 13:06:56;;;;;;;;;;;21.30;76.40;;;;;;5033609;28;20090;-79
2022/10/18 13:09:22;;;;;;;;;;;21.40;75.10;;;;;;5052088;28;19920;-78
2022/10/18 13:11:47;;;;;;;;;;;21.30;75.00;;;;;;5036399;28;19920;-78
2022/10/18 13:14:27;;;;;;;;;;;21.40;77.70;;;;;;5040386;28;20239;-78
2022/10/18 13:16:56;;;;;;;;;;;21.40;76.00;;;;;;5043033;28;20302;-79
2022/10/18 13:19:21;;;;;;;;;;;21.10;77.20;;;;;;5034345;28;19920;-79
2022/10/18 13:21:49;;;;;;;;;;;21.20;77.10;;;;;;5044074;28;20023;-79
2022/10/18 13:24:15;;;;;;;;;;;21.20;78.20;;;;;;5057768;28;19917;-80
2022/10/18 13:27:14;;;;;;;;;;;21.20;78.80;;;;;;5054757;28;19971;-79
2022/10/18 13:29:47;;;;;;;;;;;21.10;77.80;;;;;;5015284;28;20033;-79
2022/10/18 13:32:26;;;;;;;;;;;21.00;87.10;;;;;;5036128;28;20376;-80
2022/10/18 13:34:52;;;;;;;;;;;20.90;81.60;;;;;;5039279;28;19916;-78
2022/10/18 13:37:19;;;;;;;;;;;21.00;80.20;;;;;;5039985;28;19921;-81
2022/10/18 13:39:45;;;;;;;;;;;20.90;81.40;;;;;;4345031;28;10019947;-79
2022/10/18 13:42:13;;;;;;;;;;;20.90;82.00;;;;;;5035751;28;19921;-80
2022/10/18 13:44:40;;;;;;;;;;;20.80;84.70;;;;;;5035108;28;19955;-80
2022/10/18 13:47:06;;;;;;;;;;;20.80;83.30;;;;;;5038948;28;19999;-81
2022/10/18 13:49:37;;;;;;;;;;;20.80;85.40;;;;;;5040694;28;20003;-80
2022/10/18 13:52:21;;;;;;;;;;;20.70;83.30;;;;;;5038567;28;19975;-81
2022/10/18 13:54:53;;;;;;;;;;;20.60;85.60;;;;;;5038903;28;19917;-81
2022/10/18 13:57:18;;;;;;;;;;;20.60;88.60;;;;;;5042501;28;19917;-80
2022/10/18 13:59:50;;;;;;;;;;;20.60;90.20;;;;;;5036929;28;19923;-82
2022/10/18 14:02:22;;;;;;;;;;;20.60;87.80;;;;;;5041656;28;20381;-79
2022/10/18 14:05:07;;;;;;;;;;;20.60;83.60;;;;;;5045652;28;20018;-78
2022/10/18 14:07:34;;;;;;;;;;;20.50;87.70;;;;;;5029010;28;19920;-79
2022/10/18 14:10:01;;;;;;;;;;;20.50;88.40;;;;;;5044522;28;20036;-79
2022/10/18 14:12:33;;;;;;;;;;;20.50;87.10;;;;;;5042035;28;19924;-78
2022/10/18 14:15:18;;;;;;;;;;;20.40;87.00;;;;;;5050831;28;19966;-79
2022/10/18 14:17:49;;;;;;;;;;;20.40;85.40;;;;;;5045316;28;19935;-79
2022/10/18 14:20:17;;;;;;;;;;;20.20;86.80;;;;;;5041056;28;20003;-78
2022/10/18 14:22:45;;;;;;;;;;;20.00;87.80;;;;;;5043103;28;19923;-80
2022/10/18 14:25:30;;;;;;;;;;;19.90;87.80;;;;;;5038485;28;20363;-79
2022/10/18 14:28:15;;;;;;;;;;;19.90;86.90;;;;;;5050603;28;19924;-79
2022/10/18 14:30:51;;;;;;;;;;;19.70;89.20;;;;;;5047802;28;19927;-78
2022/10/18 14:33:31;;;;;;;;;;;19.70;88.80;;;;;;5040364;28;19951;-79